createdAt,value
2022-12-08T00:16:08.538Z,902
2022-12-08T00:36:08.581Z,908
2022-12-08T00:56:08.645Z,914
2022-12-08T01:16:08.738Z,917
2022-12-08T01:56:08.843Z,920
2022-12-08T02:16:08.999Z,926
2022-12-08T02:36:08.950Z,924
2022-12-08T02:56:09.067Z,923
2022-12-08T03:16:09.189Z,925
2022-12-08T03:36:09.172Z,924
2022-12-08T03:56:09.221Z,923
2022-12-08T04:16:09.288Z,922
2022-12-08T04:56:09.430Z,918
2022-12-08T05:16:25.553Z,912
2022-12-08T05:36:09.537Z,906
2022-12-08T05:56:09.602Z,902
2022-12-08T06:16:09.712Z,898
2022-12-08T06:36:09.776Z,901
2022-12-08T06:56:09.836Z,907
2022-12-08T07:16:09.868Z,915
2022-12-08T07:36:09.931Z,923
2022-12-08T07:56:09.990Z,932
2022-12-08T08:16:10.158Z,937
2022-12-08T08:36:10.127Z,939
2022-12-08T08:56:10.188Z,943
2022-12-08T09:16:10.354Z,946
2022-12-08T09:36:18.346Z,951
2022-12-08T09:56:10.384Z,952
2022-12-08T10:16:12.901Z,953
2022-12-08T10:36:10.526Z,955
2022-12-08T10:56:10.597Z,956
2022-12-08T11:16:10.681Z,959
2022-12-08T11:36:10.734Z,959
2022-12-08T12:16:10.927Z,957
2022-12-08T12:36:10.937Z,952
2022-12-08T12:56:10.995Z,948
2022-12-08T13:16:18.747Z,945
2022-12-08T13:36:11.136Z,945
2022-12-08T14:16:11.452Z,958
2022-12-08T14:36:11.321Z,965
2022-12-08T14:56:10.618Z,966
2022-12-08T15:16:11.607Z,969
2022-12-08T15:36:11.680Z,974
2022-12-08T15:56:26.782Z,974
2022-12-08T16:16:11.741Z,972
2022-12-08T16:36:11.710Z,974
2022-12-08T16:56:11.778Z,972
2022-12-08T17:16:11.855Z,969
2022-12-08T17:36:11.926Z,961
2022-12-08T17:56:11.970Z,955
2022-12-08T18:36:12.093Z,947
2022-12-08T18:56:12.188Z,948
2022-12-08T19:16:12.276Z,954
2022-12-08T19:36:12.326Z,963
2022-12-08T19:56:12.508Z,968
2022-12-08T20:36:12.504Z,967
2022-12-08T20:56:12.726Z,967
2022-12-08T21:16:12.657Z,963
2022-12-08T21:56:12.951Z,965
2022-12-08T22:16:13.075Z,967
2022-12-08T22:36:13.049Z,964
2022-12-08T22:56:12.941Z,964
2022-12-08T23:36:13.295Z,962
2022-12-08T23:56:22.287Z,959
